createdAt,value
2022-10-17T00:02:24.896Z,9.27
2022-10-17T00:07:26.675Z,9.95
2022-10-17T00:12:28.292Z,9.98
2022-10-17T00:17:30.164Z,9.82
2022-10-17T00:22:31.954Z,10.52
2022-10-17T00:27:38.057Z,11.00
2022-10-17T00:32:39.917Z,12.15
2022-10-17T00:37:41.315Z,11.13
2022-10-17T00:42:42.783Z,12.18
2022-10-17T00:47:48.439Z,12.30
2022-10-17T00:52:50.602Z,13.17
2022-10-17T00:57:53.062Z,12.38
2022-10-17T01:02:54.673Z,13.60
2022-10-17T01:07:56.545Z,14.85
2022-10-17T01:13:13.977Z,15.43
2022-10-17T01:18:39.946Z,13.05
2022-10-17T01:24:08.380Z,13.15
2022-10-17T01:29:33.448Z,14.75
2022-10-17T01:34:44.064Z,14.18
2022-10-17T01:39:54.129Z,13.73
2022-10-17T01:45:07.389Z,15.43
2022-10-17T01:50:16.740Z,14.27
2022-10-17T01:55:27.908Z,15.43
2022-10-17T02:00:31.255Z,14.48
2022-10-17T02:05:38.363Z,15.75
2022-10-17T02:10:52.110Z,15.98
2022-10-17T02:16:20.211Z,14.65
2022-10-17T02:21:39.962Z,16.17
2022-10-17T02:26:47.993Z,15.85
2022-10-17T02:32:05.644Z,15.77
2022-10-17T02:37:10.017Z,15.48
2022-10-17T02:42:13.833Z,15.70
2022-10-17T02:47:20.941Z,17.63
2022-10-17T02:52:37.261Z,15.10
2022-10-17T02:57:44.572Z,15.52
2022-10-17T03:02:49.288Z,14.98
2022-10-17T03:07:51.451Z,16.13
2022-10-17T03:12:52.871Z,14.68
2022-10-17T03:17:54.317Z,15.38
2022-10-17T03:22:55.763Z,16.27
2022-10-17T03:28:01.572Z,18.27
2022-10-17T03:33:03.041Z,18.05
2022-10-17T03:38:04.485Z,17.52
2022-10-17T03:43:05.981Z,18.45
2022-10-17T03:48:07.604Z,17.77
2022-10-17T03:53:09.029Z,16.35
2022-10-17T03:58:10.453Z,16.70
2022-10-17T04:03:14.946Z,15.40
2022-10-17T04:08:18.784Z,16.30
2022-10-17T04:13:20.268Z,15.50
2022-10-17T04:18:21.955Z,15.35
2022-10-17T04:23:23.374Z,14.85
2022-10-17T04:28:26.323Z,15.93
2022-10-17T04:33:28.561Z,15.48
2022-10-17T04:38:31.045Z,17.65
2022-10-17T04:43:34.305Z,18.92
2022-10-17T04:48:35.897Z,21.42
2022-10-17T04:53:38.513Z,20.85
2022-10-17T04:58:40.499Z,21.38
2022-10-17T05:03:42.332Z,19.65
2022-10-17T05:08:44.443Z,17.92
2022-10-17T05:13:53.240Z,17.42
2022-10-17T05:18:56.662Z,17.23
2022-10-17T05:23:58.501Z,17.08
2022-10-17T05:29:02.879Z,17.00
2022-10-17T05:34:04.521Z,17.27
2022-10-17T05:39:06.016Z,18.00
2022-10-17T05:44:07.400Z,18.77
2022-10-17T05:49:15.010Z,18.92
2022-10-17T05:54:27.317Z,19.88
2022-10-17T05:59:28.891Z,21.38
2022-10-17T06:04:30.350Z,20.42
2022-10-17T06:09:31.738Z,19.63
2022-10-17T06:14:33.444Z,17.10
2022-10-17T06:19:35.367Z,17.50
2022-10-17T06:24:36.762Z,17.13
2022-10-17T06:29:38.145Z,17.92
2022-10-17T06:34:39.808Z,20.40
2022-10-17T06:39:41.351Z,23.58
2022-10-17T06:44:42.841Z,19.50
2022-10-17T06:49:44.383Z,19.83
2022-10-17T06:54:46.087Z,19.58
2022-10-17T06:59:48.146Z,20.70
2022-10-17T07:04:49.986Z,21.55
2022-10-17T07:09:51.704Z,23.98
2022-10-17T07:14:53.178Z,22.90
2022-10-17T07:19:54.550Z,21.83
2022-10-17T07:24:56.190Z,20.90
2022-10-17T07:29:57.649Z,20.17
2022-10-17T07:34:59.051Z,20.00
2022-10-17T07:40:00.495Z,20.60
2022-10-17T07:45:02.224Z,21.08
2022-10-17T07:50:05.618Z,21.60
2022-10-17T07:55:07.882Z,23.42
2022-10-17T08:00:11.861Z,20.90
2022-10-17T08:05:13.388Z,19.05
2022-10-17T08:10:16.246Z,20.88
2022-10-17T08:15:17.701Z,19.67
2022-10-17T08:20:19.115Z,19.50
2022-10-17T08:25:20.720Z,14.20
2022-10-17T08:30:22.146Z,15.25
2022-10-17T08:35:25.244Z,14.95
2022-10-17T08:40:29.375Z,16.38
2022-10-17T08:45:41.425Z,15.00
2022-10-17T08:51:05.434Z,13.77
2022-10-17T08:56:44.028Z,15.07
2022-10-17T09:01:58.666Z,14.65
2022-10-17T09:07:13.038Z,15.77
2022-10-17T09:12:49.706Z,14.00
2022-10-17T09:17:56.408Z,16.17
2022-10-17T09:23:02.076Z,15.57
2022-10-17T09:28:15.624Z,17.15
2022-10-17T09:33:42.406Z,16.58
2022-10-17T09:38:54.421Z,15.82
2022-10-17T09:44:12.156Z,14.95
2022-10-17T09:49:19.823Z,15.95
2022-10-17T09:54:30.505Z,16.45
2022-10-17T09:59:35.411Z,15.88
2022-10-17T10:04:59.780Z,13.20
2022-10-17T10:10:00.280Z,11.68
2022-10-17T10:15:02.135Z,11.88
2022-10-17T10:20:30.648Z,11.40
2022-10-17T10:25:32.620Z,12.25
2022-10-17T10:30:36.221Z,11.75
2022-10-17T10:35:40.852Z,12.10
2022-10-17T10:40:52.639Z,12.32
2022-10-17T10:45:54.375Z,11.82
2022-10-17T10:51:17.439Z,11.73
2022-10-17T10:56:40.132Z,11.80
2022-10-17T11:01:47.546Z,9.90
2022-10-17T11:06:52.342Z,9.30
2022-10-17T11:12:20.481Z,10.07
2022-10-17T11:17:33.174Z,9.38
2022-10-17T11:22:42.210Z,9.35
2022-10-17T11:27:43.598Z,9.48
2022-10-17T11:32:56.890Z,9.35
2022-10-17T11:38:15.114Z,10.93
2022-10-17T11:43:25.549Z,11.85
2022-10-17T11:48:51.118Z,11.95
2022-10-17T11:54:17.597Z,13.05
2022-10-17T12:00:07.557Z,12.13
2022-10-17T12:05:56.514Z,12.25
2022-10-17T12:11:05.083Z,12.05
2022-10-17T12:16:21.489Z,12.25
2022-10-17T12:21:22.925Z,11.60
2022-10-17T12:26:29.516Z,11.82
2022-10-17T12:31:34.064Z,10.40
2022-10-17T12:36:35.852Z,11.02
2022-10-17T12:41:40.255Z,10.63
2022-10-17T12:47:06.168Z,10.38
2022-10-17T12:52:11.021Z,11.40
2022-10-17T12:57:33.811Z,10.73
2022-10-17T13:02:35.559Z,10.07
2022-10-17T13:07:40.719Z,9.43
2022-10-17T13:12:42.246Z,9.40
2022-10-17T13:17:43.980Z,9.85
2022-10-17T13:22:46.067Z,10.77
2022-10-17T13:27:48.886Z,11.07
2022-10-17T13:32:50.578Z,10.55
2022-10-17T13:37:54.157Z,9.40
2022-10-17T13:42:57.749Z,11.20
2022-10-17T13:48:05.515Z,10.85
2022-10-17T13:53:08.173Z,11.50
2022-10-17T13:58:18.889Z,11.18
2022-10-17T14:03:21.640Z,12.25
2022-10-17T14:08:23.811Z,9.88
2022-10-17T14:13:28.888Z,8.88
2022-10-17T14:18:36.386Z,8.48
2022-10-17T14:23:45.092Z,9.25
2022-10-17T14:28:51.126Z,9.38
2022-10-17T14:38:55.119Z,9.10
2022-10-17T14:43:59.778Z,10.02
2022-10-17T14:49:23.247Z,11.52
2022-10-17T14:54:27.524Z,13.20
2022-10-17T14:59:53.371Z,12.35
2022-10-17T15:04:50.488Z,11.15
2022-10-17T15:09:53.475Z,10.80
2022-10-17T15:14:55.011Z,12.27
2022-10-17T15:19:57.272Z,11.27
2022-10-17T15:24:58.647Z,13.02
2022-10-17T15:30:00.260Z,12.52
2022-10-17T15:35:01.644Z,12.45
2022-10-17T15:40:03.644Z,12.52
2022-10-17T15:45:05.841Z,13.48
2022-10-17T15:50:09.026Z,14.75
2022-10-17T15:55:11.140Z,15.32
2022-10-17T16:00:17.367Z,14.57
2022-10-17T16:05:26.013Z,14.57
2022-10-17T16:10:28.225Z,15.13
2022-10-17T16:15:29.765Z,15.90
2022-10-17T16:20:32.053Z,15.82
2022-10-17T16:25:33.867Z,16.65
2022-10-17T16:30:42.488Z,14.68
2022-10-17T16:35:45.620Z,16.55
2022-10-17T16:40:47.042Z,17.17
2022-10-17T16:45:48.476Z,17.77
2022-10-17T16:50:49.859Z,17.17
2022-10-17T16:56:05.044Z,17.70
2022-10-17T17:01:09.743Z,17.58
2022-10-17T17:06:19.188Z,17.63
2022-10-17T17:11:23.791Z,19.25
2022-10-17T17:16:26.894Z,17.73
2022-10-17T17:21:28.389Z,17.73
2022-10-17T17:26:32.902Z,19.33
2022-10-17T17:31:35.642Z,18.98
2022-10-17T17:36:38.079Z,19.23
2022-10-17T17:41:40.603Z,18.42
2022-10-17T17:46:43.525Z,18.38
2022-10-17T17:51:46.453Z,20.17
2022-10-17T17:56:47.970Z,18.92
2022-10-17T18:01:49.464Z,19.10
2022-10-17T18:06:50.922Z,19.52
2022-10-17T18:11:52.562Z,21.10
2022-10-17T18:16:53.955Z,21.35
2022-10-17T18:21:55.373Z,20.05
2022-10-17T18:26:59.776Z,23.52
2022-10-17T18:32:05.962Z,22.60
2022-10-17T18:42:09.585Z,22.90
2022-10-17T18:47:11.216Z,25.23
2022-10-17T18:52:19.922Z,23.58
2022-10-17T18:57:26.003Z,23.85
2022-10-17T19:02:34.270Z,23.58
2022-10-17T19:07:40.932Z,25.55
2022-10-17T19:12:44.947Z,24.27
2022-10-17T19:17:46.476Z,24.00
2022-10-17T19:22:48.171Z,25.00
2022-10-17T19:27:51.659Z,25.20
2022-10-17T19:32:53.316Z,25.73
2022-10-17T19:37:55.049Z,25.05
2022-10-17T19:42:57.050Z,26.30
2022-10-17T19:47:58.833Z,27.27
2022-10-17T19:53:00.381Z,28.65
2022-10-17T19:58:03.126Z,26.33
2022-10-17T20:03:06.949Z,26.08
2022-10-17T20:08:14.186Z,26.02
2022-10-17T20:13:15.868Z,26.98
2022-10-17T20:18:17.444Z,28.08
2022-10-17T20:23:19.320Z,25.65
2022-10-17T20:28:20.895Z,24.02
2022-10-17T20:33:31.753Z,22.65
2022-10-17T20:38:33.784Z,25.38
2022-10-17T20:43:41.190Z,23.17
2022-10-17T20:48:43.946Z,22.52
2022-10-17T20:53:45.801Z,26.77
2022-10-17T20:59:08.160Z,26.52
2022-10-17T21:09:56.165Z,26.75
2022-10-17T21:14:58.946Z,24.38
2022-10-17T21:20:07.095Z,24.92
2022-10-17T21:25:10.171Z,25.45
2022-10-17T21:30:11.868Z,26.60
2022-10-17T21:35:20.909Z,21.48
2022-10-17T21:40:26.061Z,23.50
2022-10-17T21:45:28.148Z,25.35
2022-10-17T21:50:32.809Z,24.75
2022-10-17T21:55:43.568Z,22.55
2022-10-17T22:00:47.376Z,21.50
2022-10-17T22:06:06.842Z,21.45
2022-10-17T22:11:25.520Z,23.55
2022-10-17T22:16:39.339Z,25.27
2022-10-17T22:21:45.381Z,24.27
2022-10-17T22:26:54.511Z,25.73
2022-10-17T22:31:56.042Z,24.13
2022-10-17T22:37:09.139Z,26.27
2022-10-17T22:47:24.451Z,27.42
2022-10-17T22:52:26.579Z,24.98
2022-10-17T22:57:31.636Z,21.05
2022-10-17T23:02:40.479Z,21.75
2022-10-17T23:07:41.939Z,21.30
2022-10-17T23:12:43.494Z,19.38
2022-10-17T23:17:44.914Z,16.58
2022-10-17T23:22:46.386Z,18.58
2022-10-17T23:27:48.111Z,21.95
2022-10-17T23:32:49.529Z,33.70
2022-10-17T23:37:50.920Z,30.02
2022-10-17T23:42:52.378Z,26.00
2022-10-17T23:47:53.771Z,25.55
2022-10-17T23:52:55.244Z,43.00
2022-10-17T23:57:56.660Z,24.73
